createdAt,value
2023-02-05T00:00:55.030Z,1034.24
2023-02-05T00:01:54.998Z,1034.18
2023-02-05T00:02:54.982Z,1034.21
2023-02-05T00:03:54.987Z,1034.25
2023-02-05T00:04:54.948Z,1034.24
2023-02-05T00:05:54.979Z,1034.21
2023-02-05T00:06:54.972Z,1034.22
2023-02-05T00:07:54.934Z,1034.19
2023-02-05T00:08:54.913Z,1034.17
2023-02-05T00:09:54.887Z,1034.20
2023-02-05T00:10:54.947Z,1034.15
2023-02-05T00:11:54.892Z,1034.19
2023-02-05T00:12:54.874Z,1034.16
2023-02-05T00:13:54.846Z,1034.18
2023-02-05T00:14:54.843Z,1034.19
2023-02-05T00:15:54.856Z,1034.17
2023-02-05T00:16:54.961Z,1034.21
2023-02-05T00:17:54.832Z,1034.21
2023-02-05T00:18:54.791Z,1034.17
2023-02-05T00:19:54.780Z,1034.15
2023-02-05T00:20:54.805Z,1034.19
2023-02-05T00:21:54.761Z,1034.20
2023-02-05T00:22:54.755Z,1034.19
2023-02-05T00:23:54.752Z,1034.15
2023-02-05T00:24:54.734Z,1034.18
2023-02-05T00:25:54.727Z,1034.18
2023-02-05T00:26:54.783Z,1034.17
2023-02-05T00:27:54.707Z,1034.16
2023-02-05T00:28:54.694Z,1034.14
2023-02-05T00:29:54.717Z,1034.07
2023-02-05T00:30:54.768Z,1034.03
2023-02-05T00:31:54.673Z,1034.08
2023-02-05T00:32:54.649Z,1034.07
2023-02-05T00:33:54.638Z,1034.00
2023-02-05T00:34:54.625Z,1034.00
2023-02-05T00:35:54.604Z,1034.00
2023-02-05T00:36:54.604Z,1033.97
2023-02-05T00:37:54.644Z,1033.98
2023-02-05T00:38:54.598Z,1033.99
2023-02-05T00:39:54.589Z,1033.99
2023-02-05T00:40:54.660Z,1034.05
2023-02-05T00:41:54.537Z,1034.05
2023-02-05T00:42:54.553Z,1034.08
2023-02-05T00:43:54.524Z,1034.15
2023-02-05T00:44:54.527Z,1034.13
2023-02-05T00:45:54.555Z,1034.17
2023-02-05T00:46:54.513Z,1034.16
2023-02-05T00:47:54.511Z,1034.10
2023-02-05T00:48:54.506Z,1034.10
2023-02-05T00:49:54.467Z,1034.09
2023-02-05T00:50:54.457Z,1034.08
2023-02-05T00:51:54.447Z,1034.02
2023-02-05T00:52:54.467Z,1034.06
2023-02-05T00:53:54.416Z,1034.02
2023-02-05T00:54:54.448Z,1033.98
2023-02-05T00:55:54.396Z,1034.03
2023-02-05T00:56:54.404Z,1033.98
2023-02-05T00:57:54.394Z,1033.97
2023-02-05T00:58:54.450Z,1033.97
2023-02-05T00:59:54.345Z,1033.94
2023-02-05T01:00:54.333Z,1033.97
2023-02-05T01:01:54.326Z,1033.96
2023-02-05T01:02:54.321Z,1033.95
2023-02-05T01:03:54.336Z,1033.91
2023-02-05T01:04:54.316Z,1033.90
2023-02-05T01:05:54.288Z,1033.88
2023-02-05T01:06:54.314Z,1033.86
2023-02-05T01:07:54.260Z,1033.87
2023-02-05T01:08:54.272Z,1033.80
2023-02-05T01:09:54.235Z,1033.83
2023-02-05T01:10:54.238Z,1033.78
2023-02-05T01:11:54.233Z,1033.79
2023-02-05T01:12:54.208Z,1033.79
2023-02-05T01:13:54.246Z,1033.76
2023-02-05T01:14:54.210Z,1033.73
2023-02-05T01:15:54.203Z,1033.73
2023-02-05T01:16:54.203Z,1033.72
2023-02-05T01:17:54.211Z,1033.75
2023-02-05T01:18:54.152Z,1033.68
2023-02-05T01:19:54.169Z,1033.68
2023-02-05T01:20:54.136Z,1033.67
2023-02-05T01:21:54.118Z,1033.68
2023-02-05T01:22:54.108Z,1033.71
2023-02-05T01:23:54.118Z,1033.65
2023-02-05T01:24:54.085Z,1033.64
2023-02-05T01:25:54.070Z,1033.64
2023-02-05T01:26:54.054Z,1033.61
2023-02-05T01:27:54.073Z,1033.58
2023-02-05T01:28:54.032Z,1033.51
2023-02-05T01:29:54.035Z,1033.49
2023-02-05T01:30:54.125Z,1033.54
2023-02-05T01:31:54.124Z,1033.53
2023-02-05T01:32:53.990Z,1033.54
2023-02-05T01:33:53.995Z,1033.53
2023-02-05T01:34:54.007Z,1033.57
2023-02-05T01:35:53.965Z,1033.61
2023-02-05T01:36:53.971Z,1033.58
2023-02-05T01:37:54.042Z,1033.58
2023-02-05T01:38:53.924Z,1033.55
2023-02-05T01:39:53.936Z,1033.54
2023-02-05T01:40:53.948Z,1033.52
2023-02-05T01:41:53.926Z,1033.47
2023-02-05T01:42:53.879Z,1033.43
2023-02-05T01:43:53.875Z,1033.48
2023-02-05T01:44:53.858Z,1033.49
2023-02-05T01:45:53.843Z,1033.49
2023-02-05T01:46:53.849Z,1033.57
2023-02-05T01:47:53.849Z,1033.51
2023-02-05T01:48:53.815Z,1033.48
2023-02-05T01:49:53.810Z,1033.47
2023-02-05T01:50:53.812Z,1033.42
2023-02-05T01:51:53.776Z,1033.42
2023-02-05T01:52:53.780Z,1033.42
2023-02-05T01:53:53.773Z,1033.43
2023-02-05T01:54:53.742Z,1033.40
2023-02-05T01:55:53.742Z,1033.41
2023-02-05T01:56:53.732Z,1033.38
2023-02-05T01:57:53.719Z,1033.36
2023-02-05T01:58:53.702Z,1033.35
2023-02-05T01:59:53.690Z,1033.31
2023-02-05T02:00:53.709Z,1033.30
2023-02-05T02:01:53.729Z,1033.29
2023-02-05T02:02:53.658Z,1033.24
2023-02-05T02:03:53.656Z,1033.22
2023-02-05T02:04:53.662Z,1033.26
2023-02-05T02:05:53.631Z,1033.25
2023-02-05T02:06:53.636Z,1033.23
2023-02-05T02:07:53.647Z,1033.25
2023-02-05T02:08:53.613Z,1033.24
2023-02-05T02:09:53.615Z,1033.23
2023-02-05T02:10:53.581Z,1033.23
2023-02-05T02:11:53.562Z,1033.20
2023-02-05T02:12:53.556Z,1033.17
2023-02-05T02:13:53.544Z,1033.14
2023-02-05T02:14:53.542Z,1033.06
2023-02-05T02:15:53.579Z,1033.05
2023-02-05T02:16:53.514Z,1033.09
2023-02-05T02:17:53.515Z,1033.08
2023-02-05T02:18:53.547Z,1033.07
2023-02-05T02:19:53.474Z,1033.08
2023-02-05T02:20:53.473Z,1033.04
2023-02-05T02:21:53.547Z,1033.02
2023-02-05T02:22:53.452Z,1033.00
2023-02-05T02:23:54.011Z,1032.98
2023-02-05T02:24:53.446Z,1032.96
2023-02-05T02:25:53.408Z,1032.97
2023-02-05T02:26:53.435Z,1032.97
2023-02-05T02:27:53.470Z,1032.97
2023-02-05T02:28:53.381Z,1033.00
2023-02-05T02:29:53.367Z,1033.00
2023-02-05T02:30:54.501Z,1033.00
2023-02-05T02:31:53.357Z,1032.99
2023-02-05T02:32:53.368Z,1033.00
2023-02-05T02:33:53.325Z,1033.00
2023-02-05T02:34:53.324Z,1032.95
2023-02-05T02:35:53.306Z,1032.96
2023-02-05T02:36:53.308Z,1032.91
2023-02-05T02:37:53.296Z,1032.93
2023-02-05T02:38:53.281Z,1032.86
2023-02-05T02:39:53.274Z,1032.91
2023-02-05T02:40:53.278Z,1032.85
2023-02-05T02:41:53.252Z,1032.79
2023-02-05T02:42:53.243Z,1032.80
2023-02-05T02:43:53.219Z,1032.71
2023-02-05T02:44:53.209Z,1032.72
2023-02-05T02:45:53.211Z,1032.73
2023-02-05T02:46:53.246Z,1032.76
2023-02-05T02:47:53.204Z,1032.78
2023-02-05T02:48:53.192Z,1032.83
2023-02-05T02:49:53.164Z,1032.81
2023-02-05T02:50:53.159Z,1032.80
2023-02-05T02:51:53.152Z,1032.77
2023-02-05T02:52:53.152Z,1032.78
2023-02-05T02:53:53.118Z,1032.77
2023-02-05T02:54:53.176Z,1032.80
2023-02-05T02:55:53.126Z,1032.82
2023-02-05T02:56:53.110Z,1032.84
2023-02-05T02:57:53.096Z,1032.83
2023-02-05T02:58:53.071Z,1032.80
2023-02-05T02:59:53.054Z,1032.81
2023-02-05T03:00:53.138Z,1032.76
2023-02-05T03:01:54.014Z,1032.76
2023-02-05T03:02:53.068Z,1032.71
2023-02-05T03:03:53.079Z,1032.74
2023-02-05T03:04:53.002Z,1032.75
2023-02-05T03:05:53.016Z,1032.81
2023-02-05T03:06:53.001Z,1032.80
2023-02-05T03:07:52.967Z,1032.79
2023-02-05T03:08:52.972Z,1032.82
2023-02-05T03:09:52.977Z,1032.83
2023-02-05T03:10:52.939Z,1032.83
2023-02-05T03:11:52.963Z,1032.85
2023-02-05T03:12:52.937Z,1032.83
2023-02-05T03:13:52.913Z,1032.86
2023-02-05T03:14:52.916Z,1032.84
2023-02-05T03:15:52.926Z,1032.85
2023-02-05T03:16:52.924Z,1032.82
2023-02-05T03:17:52.866Z,1032.83
2023-02-05T03:18:52.861Z,1032.88
2023-02-05T03:19:52.854Z,1032.82
2023-02-05T03:20:52.862Z,1032.87
2023-02-05T03:21:52.872Z,1032.88
2023-02-05T03:22:52.817Z,1032.82
2023-02-05T03:23:52.826Z,1032.81
2023-02-05T03:24:52.791Z,1032.83
2023-02-05T03:25:52.790Z,1032.81
2023-02-05T03:26:52.795Z,1032.84
2023-02-05T03:27:52.815Z,1032.86
2023-02-05T03:28:52.782Z,1032.86
2023-02-05T03:29:52.743Z,1032.88
2023-02-05T03:30:52.787Z,1032.87
2023-02-05T03:31:52.779Z,1032.93
2023-02-05T03:32:52.716Z,1032.86
2023-02-05T03:33:52.695Z,1032.84
2023-02-05T03:34:52.693Z,1032.82
2023-02-05T03:35:52.682Z,1032.85
2023-02-05T03:36:52.687Z,1032.78
2023-02-05T03:37:52.668Z,1032.76
2023-02-05T03:38:52.647Z,1032.74
2023-02-05T03:39:52.627Z,1032.69
2023-02-05T03:40:52.630Z,1032.67
2023-02-05T03:41:52.609Z,1032.66
2023-02-05T03:42:52.624Z,1032.65
2023-02-05T03:43:52.599Z,1032.65
2023-02-05T03:44:52.610Z,1032.72
2023-02-05T03:45:52.587Z,1032.71
2023-02-05T03:46:52.564Z,1032.73
2023-02-05T03:47:52.579Z,1032.72
2023-02-05T03:48:52.541Z,1032.72
2023-02-05T03:49:52.538Z,1032.75
2023-02-05T03:50:52.543Z,1032.78
2023-02-05T03:51:52.504Z,1032.79
2023-02-05T03:52:52.522Z,1032.77
2023-02-05T03:53:52.479Z,1032.78
2023-02-05T03:54:52.465Z,1032.80
2023-02-05T03:55:52.456Z,1032.80
2023-02-05T03:56:52.466Z,1032.80
2023-02-05T03:57:52.473Z,1032.77
2023-02-05T03:58:52.435Z,1032.75
2023-02-05T03:59:52.414Z,1032.72
2023-02-05T04:00:58.371Z,1032.75
2023-02-05T04:01:53.465Z,1032.80
2023-02-05T04:02:52.412Z,1032.82
2023-02-05T04:03:52.375Z,1032.87
2023-02-05T04:04:52.372Z,1032.88
2023-02-05T04:05:52.355Z,1032.90
2023-02-05T04:06:52.337Z,1032.92
2023-02-05T04:07:52.360Z,1032.93
2023-02-05T04:08:52.326Z,1032.92
2023-02-05T04:09:52.311Z,1032.93
2023-02-05T04:10:52.289Z,1032.92
2023-02-05T04:11:52.294Z,1032.93
2023-02-05T04:12:52.272Z,1032.93
2023-02-05T04:13:52.304Z,1032.95
2023-02-05T04:14:52.247Z,1032.97
2023-02-05T04:15:52.254Z,1033.04
2023-02-05T04:16:52.229Z,1033.01
2023-02-05T04:17:52.264Z,1033.02
2023-02-05T04:18:52.209Z,1033.06
2023-02-05T04:19:52.237Z,1033.07
2023-02-05T04:20:52.197Z,1033.02
2023-02-05T04:21:52.182Z,1033.02
2023-02-05T04:22:52.190Z,1033.03
2023-02-05T04:23:52.235Z,1033.03
2023-02-05T04:24:52.152Z,1033.07
2023-02-05T04:25:52.133Z,1033.04
2023-02-05T04:26:52.127Z,1033.04
2023-02-05T04:27:59.938Z,1033.05
2023-02-05T04:28:52.109Z,1033.03
2023-02-05T04:29:52.121Z,1033.02
2023-02-05T04:30:52.126Z,1033.01
2023-02-05T04:31:52.128Z,1032.98
2023-02-05T04:32:52.066Z,1032.92
2023-02-05T04:33:52.109Z,1032.88
2023-02-05T04:34:52.042Z,1032.92
2023-02-05T04:35:52.032Z,1032.92
2023-02-05T04:36:52.034Z,1032.92
2023-02-05T04:37:52.021Z,1032.94
2023-02-05T04:38:52.002Z,1032.98
2023-02-05T04:39:52.052Z,1033.00
2023-02-05T04:40:52.006Z,1032.95
2023-02-05T04:41:51.974Z,1032.99
2023-02-05T04:42:51.997Z,1032.93
2023-02-05T04:43:51.956Z,1032.94
2023-02-05T04:44:51.937Z,1032.92
2023-02-05T04:45:51.961Z,1032.97
2023-02-05T04:46:51.921Z,1032.91
2023-02-05T04:47:52.012Z,1032.91
2023-02-05T04:48:51.908Z,1032.93
2023-02-05T04:49:57.882Z,1032.91
2023-02-05T04:50:52.929Z,1032.85
2023-02-05T04:51:51.873Z,1032.86
2023-02-05T04:52:51.860Z,1032.88
2023-02-05T04:53:51.850Z,1032.87
2023-02-05T04:54:51.833Z,1032.86
2023-02-05T04:55:51.843Z,1032.84
2023-02-05T04:56:51.841Z,1032.87
2023-02-05T04:57:52.739Z,1032.81
2023-02-05T04:58:51.802Z,1032.82
2023-02-05T04:59:51.783Z,1032.81
2023-02-05T05:00:51.811Z,1032.80
2023-02-05T05:01:51.785Z,1032.77
2023-02-05T05:02:51.760Z,1032.86
2023-02-05T05:03:51.756Z,1032.84
2023-02-05T05:04:51.742Z,1032.85
2023-02-05T05:05:51.725Z,1032.89
2023-02-05T05:06:51.752Z,1032.88
2023-02-05T05:07:51.708Z,1032.83
2023-02-05T05:08:51.687Z,1032.82
2023-02-05T05:09:52.581Z,1032.84
2023-02-05T05:10:51.672Z,1032.78
2023-02-05T05:11:51.690Z,1032.73
2023-02-05T05:12:51.656Z,1032.75
2023-02-05T05:13:51.663Z,1032.78
2023-02-05T05:14:51.623Z,1032.82
2023-02-05T05:15:51.652Z,1032.77
2023-02-05T05:16:51.628Z,1032.78
2023-02-05T05:17:51.589Z,1032.78
2023-02-05T05:18:51.633Z,1032.73
2023-02-05T05:19:51.582Z,1032.72
2023-02-05T05:20:51.560Z,1032.68
2023-02-05T05:21:51.551Z,1032.62
2023-02-05T05:22:51.584Z,1032.64
2023-02-05T05:23:51.556Z,1032.64
2023-02-05T05:24:51.563Z,1032.65
2023-02-05T05:25:51.524Z,1032.64
2023-02-05T05:26:51.507Z,1032.67
2023-02-05T05:27:51.500Z,1032.70
2023-02-05T05:28:51.471Z,1032.70
2023-02-05T05:29:51.487Z,1032.75
2023-02-05T05:30:51.591Z,1032.79
2023-02-05T05:31:51.527Z,1032.74
2023-02-05T05:32:51.463Z,1032.81
2023-02-05T05:33:51.434Z,1032.81
2023-02-05T05:34:51.411Z,1032.84
2023-02-05T05:35:51.397Z,1032.81
2023-02-05T05:36:51.409Z,1032.89
2023-02-05T05:37:51.413Z,1032.90
2023-02-05T05:38:51.466Z,1033.02
2023-02-05T05:39:51.354Z,1033.02
2023-02-05T05:40:51.359Z,1033.04
2023-02-05T05:41:51.342Z,1033.05
2023-02-05T05:42:51.359Z,1033.06
2023-02-05T05:43:51.356Z,1033.06
2023-02-05T05:44:51.307Z,1033.06
2023-02-05T05:45:51.322Z,1033.06
2023-02-05T05:46:51.290Z,1033.11
2023-02-05T05:47:51.294Z,1033.12
2023-02-05T05:48:51.268Z,1033.14
2023-02-05T05:49:51.286Z,1033.14
2023-02-05T05:50:51.248Z,1033.14
2023-02-05T05:51:51.247Z,1033.11
2023-02-05T05:52:51.232Z,1033.12
2023-02-05T05:53:51.214Z,1033.11
2023-02-05T05:54:51.218Z,1033.11
2023-02-05T05:55:51.229Z,1033.13
2023-02-05T05:56:51.200Z,1033.11
2023-02-05T05:57:51.198Z,1033.11
2023-02-05T05:58:51.147Z,1033.10
2023-02-05T05:59:51.149Z,1033.06
2023-02-05T06:00:51.138Z,1033.04
2023-02-05T06:01:51.145Z,1032.96
2023-02-05T06:02:51.128Z,1032.91
2023-02-05T06:03:51.098Z,1032.88
2023-02-05T06:04:51.133Z,1032.89
2023-02-05T06:05:51.089Z,1032.91
2023-02-05T06:06:51.069Z,1032.94
2023-02-05T06:07:51.055Z,1032.92
2023-02-05T06:08:51.044Z,1032.93
2023-02-05T06:09:51.042Z,1032.94
2023-02-05T06:10:51.071Z,1032.94
2023-02-05T06:11:51.030Z,1032.89
2023-02-05T06:12:50.994Z,1032.91
2023-02-05T06:13:51.012Z,1032.91
2023-02-05T06:14:50.981Z,1032.92
2023-02-05T06:15:51.006Z,1032.92
2023-02-05T06:16:50.966Z,1032.90
2023-02-05T06:17:50.954Z,1032.89
2023-02-05T06:18:50.965Z,1032.86
2023-02-05T06:19:50.930Z,1032.88
2023-02-05T06:20:50.915Z,1032.88
2023-02-05T06:21:50.932Z,1032.85
2023-02-05T06:22:50.894Z,1032.81
2023-02-05T06:23:50.876Z,1032.84
2023-02-05T06:24:50.871Z,1032.86
2023-02-05T06:25:50.859Z,1032.88
2023-02-05T06:26:50.900Z,1032.94
2023-02-05T06:27:50.848Z,1032.88
2023-02-05T06:28:50.833Z,1032.84
2023-02-05T06:29:50.824Z,1032.84
2023-02-05T06:30:50.937Z,1032.80
2023-02-05T06:31:50.971Z,1032.76
2023-02-05T06:32:50.787Z,1032.77
2023-02-05T06:33:50.889Z,1032.75
2023-02-05T06:34:50.769Z,1032.80
2023-02-05T06:35:50.776Z,1032.82
2023-02-05T06:36:50.748Z,1032.82
2023-02-05T06:37:50.769Z,1032.83
2023-02-05T06:38:50.753Z,1032.85
2023-02-05T06:39:50.712Z,1032.86
2023-02-05T06:40:50.700Z,1032.86
2023-02-05T06:41:50.691Z,1032.88
2023-02-05T06:42:50.758Z,1032.90
2023-02-05T06:43:50.705Z,1032.90
2023-02-05T06:44:50.689Z,1032.89
2023-02-05T06:45:50.678Z,1032.86
2023-02-05T06:46:50.660Z,1032.83
2023-02-05T06:47:50.661Z,1032.80
2023-02-05T06:48:50.618Z,1032.80
2023-02-05T06:49:50.605Z,1032.79
2023-02-05T06:50:50.609Z,1032.81
2023-02-05T06:51:50.584Z,1032.87
2023-02-05T06:52:50.597Z,1032.83
2023-02-05T06:53:50.566Z,1032.86
2023-02-05T06:54:50.552Z,1032.89
2023-02-05T06:55:50.547Z,1032.92
2023-02-05T06:56:50.536Z,1032.98
2023-02-05T06:57:50.528Z,1033.00
2023-02-05T06:58:50.630Z,1033.05
2023-02-05T06:59:50.504Z,1033.05
2023-02-05T07:00:50.502Z,1033.07
2023-02-05T07:01:50.595Z,1033.04
2023-02-05T07:02:50.589Z,1033.04
2023-02-05T07:03:50.505Z,1033.00
2023-02-05T07:04:50.447Z,1032.97
2023-02-05T07:05:50.447Z,1032.95
2023-02-05T07:06:50.435Z,1033.02
2023-02-05T07:07:50.439Z,1033.05
2023-02-05T07:08:50.451Z,1033.08
2023-02-05T07:09:50.406Z,1033.07
2023-02-05T07:10:50.406Z,1033.08
2023-02-05T07:11:50.394Z,1033.10
2023-02-05T07:12:50.405Z,1033.09
2023-02-05T07:13:50.379Z,1033.09
2023-02-05T07:14:50.497Z,1033.08
2023-02-05T07:15:50.350Z,1033.00
2023-02-05T07:16:50.415Z,1033.03
2023-02-05T07:17:50.364Z,1032.96
2023-02-05T07:18:50.419Z,1032.96
2023-02-05T07:19:50.422Z,1032.92
2023-02-05T07:20:50.396Z,1032.94
2023-02-05T07:21:50.344Z,1032.86
2023-02-05T07:22:50.298Z,1032.89
2023-02-05T07:23:50.367Z,1032.84
2023-02-05T07:24:50.590Z,1032.83
2023-02-05T07:25:50.281Z,1032.81
2023-02-05T07:26:50.373Z,1032.78
2023-02-05T07:27:50.358Z,1032.77
2023-02-05T07:28:50.471Z,1032.84
2023-02-05T07:29:50.192Z,1032.83
2023-02-05T07:30:50.418Z,1032.84
2023-02-05T07:31:50.241Z,1032.85
2023-02-05T07:32:50.970Z,1032.84
2023-02-05T07:33:50.238Z,1032.87
2023-02-05T07:34:50.231Z,1032.90
2023-02-05T07:35:50.541Z,1032.90
2023-02-05T07:36:50.356Z,1032.91
2023-02-05T07:37:50.315Z,1032.92
2023-02-05T07:38:50.208Z,1032.92
2023-02-05T07:39:50.220Z,1032.85
2023-02-05T07:40:50.213Z,1032.88
2023-02-05T07:41:50.143Z,1032.85
2023-02-05T07:42:50.298Z,1032.79
2023-02-05T07:43:50.068Z,1032.84
2023-02-05T07:44:50.103Z,1032.82
2023-02-05T07:45:50.091Z,1032.81
2023-02-05T07:46:50.088Z,1032.77
2023-02-05T07:47:50.110Z,1032.74
2023-02-05T07:48:50.064Z,1032.74
2023-02-05T07:49:50.356Z,1032.70
2023-02-05T07:50:50.109Z,1032.68
2023-02-05T07:51:50.121Z,1032.69
2023-02-05T07:52:50.021Z,1032.66
2023-02-05T07:53:50.136Z,1032.70
2023-02-05T07:54:50.149Z,1032.71
2023-02-05T07:55:49.992Z,1032.73
2023-02-05T07:56:50.125Z,1032.73
2023-02-05T07:57:50.078Z,1032.72
2023-02-05T07:58:49.937Z,1032.80
2023-02-05T07:59:49.911Z,1032.81
2023-02-05T08:00:50.105Z,1032.76
2023-02-05T08:01:50.227Z,1032.81
2023-02-05T08:02:49.940Z,1032.78
2023-02-05T08:03:49.853Z,1032.70
2023-02-05T08:04:49.901Z,1032.75
2023-02-05T08:05:51.330Z,1032.70
2023-02-05T08:06:49.833Z,1032.67
2023-02-05T08:07:49.829Z,1032.60
2023-02-05T08:08:49.840Z,1032.54
2023-02-05T08:09:49.993Z,1032.56
2023-02-05T08:10:49.851Z,1032.60
2023-02-05T08:11:49.769Z,1032.59
2023-02-05T08:12:49.803Z,1032.60
2023-02-05T08:13:49.741Z,1032.58
2023-02-05T08:14:49.772Z,1032.59
2023-02-05T08:15:49.699Z,1032.57
2023-02-05T08:16:49.834Z,1032.57
2023-02-05T08:17:49.699Z,1032.60
2023-02-05T08:18:49.735Z,1032.58
2023-02-05T08:19:49.657Z,1032.57
2023-02-05T08:20:49.700Z,1032.55
2023-02-05T08:21:49.671Z,1032.53
2023-02-05T08:22:49.716Z,1032.52
2023-02-05T08:23:49.769Z,1032.55
2023-02-05T08:24:49.705Z,1032.46
2023-02-05T08:25:49.793Z,1032.45
2023-02-05T08:26:49.767Z,1032.51
2023-02-05T08:27:49.574Z,1032.49
2023-02-05T08:28:49.577Z,1032.48
2023-02-05T08:29:49.572Z,1032.52
2023-02-05T08:30:49.608Z,1032.58
2023-02-05T08:31:49.650Z,1032.53
2023-02-05T08:32:49.788Z,1032.52
2023-02-05T08:33:50.770Z,1032.53
2023-02-05T08:34:49.547Z,1032.55
2023-02-05T08:35:49.573Z,1032.56
2023-02-05T08:36:49.512Z,1032.53
2023-02-05T08:37:49.464Z,1032.56
2023-02-05T08:38:49.448Z,1032.55
2023-02-05T08:39:49.460Z,1032.54
2023-02-05T08:40:49.444Z,1032.52
2023-02-05T08:41:49.410Z,1032.57
2023-02-05T08:42:49.411Z,1032.51
2023-02-05T08:43:49.403Z,1032.51
2023-02-05T08:44:49.378Z,1032.53
2023-02-05T08:45:49.430Z,1032.54
2023-02-05T08:46:50.608Z,1032.53
2023-02-05T08:47:49.358Z,1032.56
2023-02-05T08:48:49.376Z,1032.56
2023-02-05T08:49:49.332Z,1032.53
2023-02-05T08:50:49.345Z,1032.58
2023-02-05T08:51:49.337Z,1032.53
2023-02-05T08:52:49.310Z,1032.54
2023-02-05T08:53:49.353Z,1032.53
2023-02-05T08:54:49.290Z,1032.49
2023-02-05T08:55:49.268Z,1032.52
2023-02-05T08:56:49.342Z,1032.47
2023-02-05T08:57:49.248Z,1032.44
2023-02-05T08:58:49.254Z,1032.45
2023-02-05T08:59:49.230Z,1032.42
2023-02-05T09:00:49.252Z,1032.42
2023-02-05T09:01:49.460Z,1032.40
2023-02-05T09:02:49.189Z,1032.40
2023-02-05T09:03:49.189Z,1032.40
2023-02-05T09:04:50.281Z,1032.42
2023-02-05T09:05:49.160Z,1032.42
2023-02-05T09:06:49.168Z,1032.45
2023-02-05T09:07:49.170Z,1032.46
2023-02-05T09:08:49.172Z,1032.45
2023-02-05T09:09:49.126Z,1032.49
2023-02-05T09:10:49.098Z,1032.55
2023-02-05T09:11:49.101Z,1032.51
2023-02-05T09:12:49.093Z,1032.54
2023-02-05T09:13:49.137Z,1032.52
2023-02-05T09:14:49.078Z,1032.53
2023-02-05T09:15:49.066Z,1032.52
2023-02-05T09:16:49.057Z,1032.49
2023-02-05T09:17:49.059Z,1032.48
2023-02-05T09:18:49.075Z,1032.49
2023-02-05T09:19:49.005Z,1032.48
2023-02-05T09:20:49.008Z,1032.50
2023-02-05T09:21:48.987Z,1032.46
2023-02-05T09:22:49.004Z,1032.43
2023-02-05T09:23:49.112Z,1032.44
2023-02-05T09:24:48.956Z,1032.41
2023-02-05T09:25:48.956Z,1032.46
2023-02-05T09:26:48.949Z,1032.45
2023-02-05T09:27:50.619Z,1032.46
2023-02-05T09:28:49.021Z,1032.46
2023-02-05T09:29:48.889Z,1032.45
2023-02-05T09:30:48.990Z,1032.41
2023-02-05T09:31:49.077Z,1032.42
2023-02-05T09:32:48.909Z,1032.47
2023-02-05T09:33:48.909Z,1032.51
2023-02-05T09:34:48.884Z,1032.45
2023-02-05T09:35:48.907Z,1032.49
2023-02-05T09:36:48.828Z,1032.54
2023-02-05T09:37:48.874Z,1032.57
2023-02-05T09:38:48.825Z,1032.56
2023-02-05T09:40:20.391Z,1032.57
2023-02-05T09:40:49.786Z,1032.57
2023-02-05T09:41:48.768Z,1032.51
2023-02-05T09:42:48.828Z,1032.52
2023-02-05T09:43:48.767Z,1032.49
2023-02-05T09:44:48.773Z,1032.54
2023-02-05T09:45:48.863Z,1032.54
2023-02-05T09:46:48.731Z,1032.59
2023-02-05T09:47:48.698Z,1032.53
2023-02-05T09:48:48.695Z,1032.55
2023-02-05T09:49:48.691Z,1032.53
2023-02-05T09:50:48.713Z,1032.52
2023-02-05T09:51:48.686Z,1032.50
2023-02-05T09:52:48.652Z,1032.55
2023-02-05T09:53:48.641Z,1032.53
2023-02-05T09:54:48.645Z,1032.51
2023-02-05T09:55:48.638Z,1032.51
2023-02-05T09:56:48.619Z,1032.52
2023-02-05T09:57:48.601Z,1032.53
2023-02-05T09:58:48.581Z,1032.43
2023-02-05T09:59:48.617Z,1032.47
2023-02-05T10:00:48.584Z,1032.40
2023-02-05T10:01:48.544Z,1032.40
2023-02-05T10:02:48.553Z,1032.42
2023-02-05T10:03:48.562Z,1032.42
2023-02-05T10:04:48.528Z,1032.42
2023-02-05T10:05:48.901Z,1032.44
2023-02-05T10:06:48.513Z,1032.46
2023-02-05T10:07:48.524Z,1032.48
2023-02-05T10:08:48.476Z,1032.47
2023-02-05T10:09:48.488Z,1032.47
2023-02-05T10:10:48.494Z,1032.43
2023-02-05T10:11:48.441Z,1032.43
2023-02-05T10:12:48.424Z,1032.43
2023-02-05T10:13:48.440Z,1032.36
2023-02-05T10:14:49.262Z,1032.38
2023-02-05T10:15:48.460Z,1032.36
2023-02-05T10:16:48.456Z,1032.40
2023-02-05T10:17:48.378Z,1032.39
2023-02-05T10:18:48.394Z,1032.39
2023-02-05T10:19:48.371Z,1032.38
2023-02-05T10:20:48.340Z,1032.29
2023-02-05T10:21:48.336Z,1032.26
2023-02-05T10:22:48.333Z,1032.25
2023-02-05T10:23:48.357Z,1032.22
2023-02-05T10:24:48.296Z,1032.19
2023-02-05T10:25:48.339Z,1032.23
2023-02-05T10:26:48.375Z,1032.18
2023-02-05T10:27:48.303Z,1032.16
2023-02-05T10:28:48.530Z,1032.12
2023-02-05T10:29:48.336Z,1032.11
2023-02-05T10:30:48.368Z,1032.08
2023-02-05T10:31:48.306Z,1032.09
2023-02-05T10:32:48.233Z,1032.06
2023-02-05T10:33:48.192Z,1032.05
2023-02-05T10:34:48.219Z,1032.03
2023-02-05T10:35:48.186Z,1032.00
2023-02-05T10:36:49.223Z,1031.93
2023-02-05T10:37:48.188Z,1031.97
2023-02-05T10:38:48.157Z,1031.94
2023-02-05T10:39:48.159Z,1031.95
2023-02-05T10:40:48.139Z,1031.94
2023-02-05T10:41:48.137Z,1031.96
2023-02-05T10:42:48.113Z,1031.96
2023-02-05T10:43:48.107Z,1031.97
2023-02-05T10:44:48.098Z,1031.98
2023-02-05T10:45:48.142Z,1031.99
2023-02-05T10:46:48.067Z,1031.98
2023-02-05T10:47:48.054Z,1032.05
2023-02-05T10:48:48.048Z,1031.98
2023-02-05T10:49:48.126Z,1031.95
2023-02-05T10:50:48.040Z,1032.00
2023-02-05T10:51:48.010Z,1032.00
2023-02-05T10:52:48.012Z,1031.96
2023-02-05T10:53:47.991Z,1031.94
2023-02-05T10:54:48.035Z,1031.93
2023-02-05T10:55:47.990Z,1031.89
2023-02-05T10:56:48.006Z,1031.90
2023-02-05T10:57:47.943Z,1031.87
2023-02-05T10:58:47.991Z,1031.88
2023-02-05T10:59:47.931Z,1031.85
2023-02-05T11:00:47.919Z,1031.92
2023-02-05T11:01:47.994Z,1031.85
2023-02-05T11:02:48.077Z,1031.84
2023-02-05T11:03:47.947Z,1031.88
2023-02-05T11:04:47.875Z,1031.90
2023-02-05T11:05:47.876Z,1031.83
2023-02-05T11:06:47.855Z,1031.79
2023-02-05T11:07:47.863Z,1031.78
2023-02-05T11:08:47.838Z,1031.77
2023-02-05T11:09:47.825Z,1031.71
2023-02-05T11:10:47.851Z,1031.79
2023-02-05T11:11:47.792Z,1031.76
2023-02-05T11:12:56.418Z,1031.77
2023-02-05T11:13:47.778Z,1031.81
2023-02-05T11:14:47.772Z,1031.81
2023-02-05T11:15:47.757Z,1031.80
2023-02-05T11:16:47.731Z,1031.78
2023-02-05T11:17:47.727Z,1031.82
2023-02-05T11:18:47.718Z,1031.83
2023-02-05T11:19:47.697Z,1031.86
2023-02-05T11:20:47.689Z,1031.94
2023-02-05T11:21:47.691Z,1031.92
2023-02-05T11:22:47.682Z,1031.92
2023-02-05T11:23:47.653Z,1031.92
2023-02-05T11:24:47.649Z,1031.88
2023-02-05T11:25:47.646Z,1031.87
2023-02-05T11:26:47.617Z,1031.84
2023-02-05T11:27:47.646Z,1031.83
2023-02-05T11:28:47.629Z,1031.84
2023-02-05T11:29:47.603Z,1031.84
2023-02-05T11:30:51.124Z,1031.81
2023-02-05T11:31:47.599Z,1031.80
2023-02-05T11:32:47.552Z,1031.75
2023-02-05T11:33:47.557Z,1031.75
2023-02-05T11:34:47.542Z,1031.92
2023-02-05T11:35:47.532Z,1031.80
2023-02-05T11:36:47.509Z,1031.77
2023-02-05T11:37:47.506Z,1031.76
2023-02-05T11:38:47.523Z,1031.85
2023-02-05T11:39:47.487Z,1031.82
2023-02-05T11:40:47.476Z,1031.78
2023-02-05T11:41:47.515Z,1031.80
2023-02-05T11:42:47.453Z,1031.74
2023-02-05T11:43:47.460Z,1031.74
2023-02-05T11:44:47.430Z,1031.73
2023-02-05T11:45:47.417Z,1031.74
2023-02-05T11:46:47.479Z,1031.70
2023-02-05T11:47:47.396Z,1031.80
2023-02-05T11:48:47.385Z,1031.75
2023-02-05T11:49:47.371Z,1031.80
2023-02-05T11:50:47.366Z,1031.77
2023-02-05T11:51:47.421Z,1031.80
2023-02-05T11:52:47.345Z,1031.78
2023-02-05T11:53:47.330Z,1031.83
2023-02-05T11:54:47.317Z,1031.80
2023-02-05T11:55:47.323Z,1031.81
2023-02-05T11:56:47.309Z,1031.81
2023-02-05T11:57:47.292Z,1031.81
2023-02-05T11:58:47.280Z,1031.84
2023-02-05T11:59:47.289Z,1031.83
2023-02-05T12:00:47.254Z,1031.84
2023-02-05T12:01:47.377Z,1031.87
2023-02-05T12:02:47.286Z,1031.84
2023-02-05T12:03:47.260Z,1031.87
2023-02-05T12:04:47.224Z,1031.84
2023-02-05T12:05:47.205Z,1031.84